createdAt,value
2022-08-28T00:00:15.638Z,18.20
2022-08-28T00:02:43.069Z,18.20
2022-08-28T00:05:11.571Z,18.10
2022-08-28T00:07:38.938Z,18.10
2022-08-28T00:10:08.464Z,18.10
2022-08-28T00:12:37.006Z,18.00
2022-08-28T00:15:08.389Z,18.00
2022-08-28T00:17:40.093Z,18.00
2022-08-28T00:20:10.083Z,17.90
2022-08-28T00:22:38.739Z,17.90
2022-08-28T00:25:08.513Z,17.90
2022-08-28T00:27:55.289Z,17.80
2022-08-28T00:30:31.650Z,17.80
2022-08-28T00:33:07.003Z,17.70
2022-08-28T00:35:34.803Z,17.70
2022-08-28T00:38:02.139Z,17.70
2022-08-28T00:40:32.889Z,17.70
2022-08-28T00:43:02.866Z,17.60
2022-08-28T00:45:33.876Z,17.60
2022-08-28T00:48:03.759Z,17.60
2022-08-28T00:50:53.211Z,17.60
2022-08-28T00:53:25.349Z,17.60
2022-08-28T00:55:58.154Z,17.50
2022-08-28T00:58:25.358Z,17.50
2022-08-28T01:00:52.603Z,17.40
2022-08-28T01:03:19.830Z,17.40
2022-08-28T01:05:52.487Z,17.40
2022-08-28T01:08:19.983Z,17.40
2022-08-28T01:10:53.086Z,17.30
2022-08-28T01:13:20.690Z,17.30
2022-08-28T01:15:49.442Z,17.30
2022-08-28T01:18:18.306Z,17.20
2022-08-28T01:20:59.082Z,17.20
2022-08-28T01:23:56.125Z,17.20
2022-08-28T01:26:24.711Z,17.10
2022-08-28T01:28:52.160Z,17.10
2022-08-28T01:31:21.031Z,17.10
2022-08-28T01:33:48.919Z,17.10
2022-08-28T01:36:17.666Z,17.10
2022-08-28T01:38:49.181Z,17.10
2022-08-28T01:41:16.568Z,17.00
2022-08-28T01:43:43.969Z,17.00
2022-08-28T01:46:12.415Z,17.00
2022-08-28T01:48:42.540Z,17.00
2022-08-28T01:51:11.338Z,17.00
2022-08-28T01:53:41.580Z,16.90
2022-08-28T01:56:14.839Z,16.90
2022-08-28T01:58:42.317Z,16.90
2022-08-28T02:01:16.392Z,16.90
2022-08-28T02:03:43.863Z,16.80
2022-08-28T02:06:12.186Z,16.80
2022-08-28T02:08:39.525Z,16.80
2022-08-28T02:11:08.637Z,16.80
2022-08-28T02:13:37.530Z,16.70
2022-08-28T02:16:07.227Z,16.60
2022-08-28T02:18:35.022Z,16.60
2022-08-28T02:21:02.190Z,16.50
2022-08-28T02:23:29.382Z,16.50
2022-08-28T02:25:56.563Z,16.50
2022-08-28T02:28:23.735Z,16.40
2022-08-28T02:30:51.017Z,16.40
2022-08-28T02:33:18.272Z,16.30
2022-08-28T02:35:45.588Z,16.20
2022-08-28T02:38:14.082Z,16.20
2022-08-28T02:40:41.506Z,16.10
2022-08-28T02:43:09.185Z,16.00
2022-08-28T02:45:37.181Z,16.00
2022-08-28T02:48:05.075Z,15.90
2022-08-28T02:50:41.854Z,15.90
2022-08-28T02:53:09.060Z,15.90
2022-08-28T02:55:36.231Z,15.80
2022-08-28T02:58:03.754Z,15.90
2022-08-28T03:00:30.999Z,15.80
2022-08-28T03:02:58.295Z,15.80
2022-08-28T03:05:26.211Z,15.80
2022-08-28T03:07:54.710Z,15.80
2022-08-28T03:10:22.259Z,15.70
2022-08-28T03:12:49.578Z,15.70
2022-08-28T03:15:17.947Z,15.70
2022-08-28T03:17:45.190Z,15.60
2022-08-28T03:20:16.442Z,15.60
2022-08-28T03:23:02.444Z,15.60
2022-08-28T03:25:30.109Z,15.50
2022-08-28T03:27:57.474Z,15.50
2022-08-28T03:30:24.786Z,15.40
2022-08-28T03:32:52.079Z,15.40
2022-08-28T03:35:20.235Z,15.40
2022-08-28T03:37:47.739Z,15.40
2022-08-28T03:40:15.308Z,15.30
2022-08-28T03:42:42.702Z,15.30
2022-08-28T03:45:20.377Z,15.20
2022-08-28T03:47:47.736Z,15.20
2022-08-28T03:50:16.707Z,15.10
2022-08-28T03:52:43.901Z,15.10
2022-08-28T03:55:13.169Z,15.10
2022-08-28T03:57:40.613Z,15.10
2022-08-28T04:00:11.575Z,15.00
2022-08-28T04:02:43.106Z,15.00
2022-08-28T04:05:11.145Z,15.00
2022-08-28T04:07:39.343Z,14.90
2022-08-28T04:10:07.516Z,14.90
2022-08-28T04:12:35.971Z,14.90
2022-08-28T04:15:04.159Z,14.90
2022-08-28T04:17:31.346Z,14.90
2022-08-28T04:19:58.610Z,15.00
2022-08-28T04:22:26.054Z,15.00
2022-08-28T04:24:54.497Z,15.00
2022-08-28T04:27:21.714Z,15.00
2022-08-28T04:29:49.102Z,15.00
2022-08-28T04:32:16.439Z,15.00
2022-08-28T04:34:43.700Z,15.00
2022-08-28T04:37:11.830Z,15.00
2022-08-28T04:39:39.207Z,15.00
2022-08-28T04:42:06.455Z,15.00
2022-08-28T04:44:33.870Z,15.00
2022-08-28T04:47:01.530Z,15.00
2022-08-28T04:49:29.143Z,14.90
2022-08-28T04:51:56.419Z,15.00
2022-08-28T04:54:23.661Z,14.90
2022-08-28T04:56:51.043Z,14.90
2022-08-28T04:59:18.525Z,14.90
2022-08-28T05:01:46.216Z,14.90
2022-08-28T05:04:13.471Z,14.90
2022-08-28T05:06:46.529Z,14.90
2022-08-28T05:09:16.965Z,14.90
2022-08-28T05:11:44.650Z,14.90
2022-08-28T05:14:15.860Z,14.90
2022-08-28T05:16:49.448Z,14.90
2022-08-28T05:19:18.459Z,14.90
2022-08-28T05:21:46.609Z,14.90
2022-08-28T05:24:14.047Z,14.90
2022-08-28T05:26:41.404Z,14.90
2022-08-28T05:29:09.846Z,15.00
2022-08-28T05:31:39.020Z,15.00
2022-08-28T05:34:07.528Z,15.00
2022-08-28T05:36:36.680Z,15.00
2022-08-28T05:39:09.664Z,15.00
2022-08-28T05:41:39.569Z,15.10
2022-08-28T05:44:09.270Z,15.10
2022-08-28T05:46:42.228Z,15.10
2022-08-28T05:49:10.485Z,15.20
2022-08-28T05:51:40.964Z,15.20
2022-08-28T05:54:08.580Z,15.30
2022-08-28T05:56:38.513Z,15.30
2022-08-28T05:59:07.398Z,15.30
2022-08-28T06:01:38.871Z,15.40
2022-08-28T06:04:15.855Z,15.40
2022-08-28T06:06:43.833Z,15.40
2022-08-28T06:09:14.869Z,15.50
2022-08-28T06:11:44.763Z,15.50
2022-08-28T06:14:16.471Z,15.50
2022-08-28T06:16:48.078Z,15.60
2022-08-28T06:19:16.949Z,15.70
2022-08-28T06:21:46.838Z,15.70
2022-08-28T06:24:14.576Z,15.80
2022-08-28T06:26:41.964Z,15.90
2022-08-28T06:29:12.147Z,15.90
2022-08-28T06:31:39.855Z,16.00
2022-08-28T06:34:08.880Z,16.00
2022-08-28T06:36:40.183Z,16.10
2022-08-28T06:39:10.000Z,16.10
2022-08-28T06:41:42.941Z,16.30
2022-08-28T06:44:13.990Z,16.30
2022-08-28T06:46:42.167Z,16.40
2022-08-28T06:49:09.657Z,16.50
2022-08-28T06:51:36.890Z,16.60
2022-08-28T06:54:05.091Z,16.60
2022-08-28T06:56:33.086Z,16.60
2022-08-28T06:59:00.448Z,16.70
2022-08-28T07:01:30.644Z,16.80
2022-08-28T07:04:01.126Z,16.90
2022-08-28T07:06:32.112Z,17.00
2022-08-28T07:08:59.431Z,17.10
2022-08-28T07:11:29.653Z,17.10
2022-08-28T07:13:57.940Z,17.20
2022-08-28T07:16:29.300Z,17.20
2022-08-28T07:18:57.333Z,17.20
2022-08-28T07:21:24.535Z,17.10
2022-08-28T07:23:51.811Z,17.30
2022-08-28T07:26:22.693Z,17.50
2022-08-28T07:28:51.695Z,17.80
2022-08-28T07:31:22.837Z,17.90
2022-08-28T07:33:53.938Z,18.00
2022-08-28T07:36:28.826Z,18.00
2022-08-28T07:38:59.538Z,18.10
2022-08-28T07:41:29.678Z,18.00
2022-08-28T07:44:16.506Z,18.00
2022-08-28T07:46:44.598Z,18.10
2022-08-28T07:49:15.480Z,18.10
2022-08-28T07:51:42.865Z,18.20
2022-08-28T07:54:17.698Z,18.20
2022-08-28T07:56:46.721Z,18.20
2022-08-28T07:59:16.986Z,18.20
2022-08-28T08:01:48.740Z,18.10
2022-08-28T08:04:17.637Z,18.00
2022-08-28T08:06:45.565Z,17.90
2022-08-28T08:09:14.892Z,17.80
2022-08-28T08:11:42.614Z,17.80
2022-08-28T08:14:10.935Z,17.90
2022-08-28T08:16:44.062Z,17.90
2022-08-28T08:19:15.457Z,17.80
2022-08-28T08:21:44.759Z,17.90
2022-08-28T08:24:19.785Z,17.90
2022-08-28T08:26:56.471Z,17.90
2022-08-28T08:29:29.754Z,17.90
2022-08-28T08:32:05.196Z,17.90
2022-08-28T08:34:38.448Z,17.80
2022-08-28T08:37:06.040Z,17.80
2022-08-28T08:39:34.820Z,17.90
2022-08-28T08:42:05.208Z,18.00
2022-08-28T08:44:40.322Z,18.10
2022-08-28T08:47:16.699Z,18.30
2022-08-28T08:49:53.767Z,18.40
2022-08-28T08:52:30.178Z,18.60
2022-08-28T08:55:09.963Z,18.80
2022-08-28T08:57:38.986Z,19.00
2022-08-28T09:00:15.175Z,19.00
2022-08-28T09:03:07.839Z,19.10
2022-08-28T09:05:49.430Z,19.70
2022-08-28T09:08:41.331Z,20.70
2022-08-28T09:11:31.835Z,21.80
2022-08-28T09:14:11.054Z,23.10
2022-08-28T09:16:41.810Z,23.90
2022-08-28T09:19:13.873Z,23.90
2022-08-28T09:21:44.390Z,24.10
2022-08-28T09:24:32.880Z,25.00
2022-08-28T09:27:04.542Z,25.60
2022-08-28T09:29:43.212Z,25.90
2022-08-28T09:32:23.851Z,25.80
2022-08-28T09:35:29.979Z,25.70
2022-08-28T09:38:27.643Z,25.70
2022-08-28T09:41:28.657Z,26.10
2022-08-28T09:43:56.809Z,26.00
2022-08-28T09:46:32.324Z,25.80
2022-08-28T09:49:13.610Z,26.20
2022-08-28T09:51:41.536Z,26.90
2022-08-28T09:54:22.599Z,27.40
2022-08-28T09:56:50.526Z,27.50
2022-08-28T09:59:23.534Z,27.60
2022-08-28T10:02:13.014Z,27.60
2022-08-28T10:05:03.692Z,27.30
2022-08-28T10:07:48.930Z,27.70
2022-08-28T10:10:53.531Z,28.20
2022-08-28T10:13:27.466Z,29.20
2022-08-28T10:16:26.163Z,29.90
2022-08-28T10:19:04.837Z,30.50
2022-08-28T10:21:48.310Z,30.60
2022-08-28T10:24:45.870Z,30.60
2022-08-28T10:27:31.600Z,29.90
2022-08-28T10:30:13.120Z,29.50
2022-08-28T10:32:53.480Z,29.40
2022-08-28T10:35:35.583Z,29.10
2022-08-28T10:38:16.094Z,29.00
2022-08-28T10:41:19.026Z,29.50
2022-08-28T10:43:59.971Z,30.40
2022-08-28T10:46:39.508Z,30.10
2022-08-28T10:49:11.958Z,30.30
2022-08-28T10:51:47.736Z,30.20
2022-08-28T10:54:32.868Z,30.70
2022-08-28T10:57:09.848Z,31.10
2022-08-28T10:59:41.873Z,30.60
2022-08-28T11:02:13.240Z,30.30
2022-08-28T11:04:40.722Z,29.80
2022-08-28T11:07:20.294Z,30.30
2022-08-28T11:09:48.965Z,29.70
2022-08-28T11:12:38.040Z,29.90
2022-08-28T11:15:43.370Z,30.80
2022-08-28T11:18:16.290Z,31.30
2022-08-28T11:21:02.271Z,31.70
2022-08-28T11:23:42.738Z,31.90
2022-08-28T11:26:12.787Z,31.60
2022-08-28T11:28:44.528Z,32.10
2022-08-28T11:31:25.686Z,32.00
2022-08-28T11:33:58.925Z,32.50
2022-08-28T11:36:28.118Z,32.30
2022-08-28T11:38:55.488Z,31.90
2022-08-28T11:41:29.342Z,32.30
2022-08-28T11:44:14.405Z,32.30
2022-08-28T11:46:47.469Z,32.30
2022-08-28T11:49:29.387Z,32.30
2022-08-28T11:52:21.259Z,33.10
2022-08-28T11:55:13.538Z,34.00
2022-08-28T12:00:59.944Z,34.80
2022-08-28T12:03:58.223Z,34.20
2022-08-28T12:06:49.109Z,33.30
2022-08-28T12:09:36.402Z,33.10
2022-08-28T12:12:25.466Z,33.10
2022-08-28T12:14:55.699Z,32.40
2022-08-28T12:17:22.889Z,32.60
2022-08-28T12:19:56.775Z,33.10
2022-08-28T12:22:39.219Z,33.10
2022-08-28T12:25:14.035Z,32.30
2022-08-28T12:27:41.595Z,31.80
2022-08-28T12:30:09.002Z,31.90
2022-08-28T12:32:55.023Z,32.10
2022-08-28T12:35:29.494Z,32.30
2022-08-28T12:37:57.317Z,32.50
2022-08-28T12:40:26.594Z,33.60
2022-08-28T12:43:02.762Z,34.20
2022-08-28T12:45:56.252Z,34.50
2022-08-28T12:48:51.331Z,33.80
2022-08-28T12:51:27.079Z,33.30
2022-08-28T12:54:03.071Z,33.00
2022-08-28T12:56:34.028Z,33.70
2022-08-28T12:59:32.792Z,35.00
2022-08-28T13:02:28.276Z,35.10
2022-08-28T13:04:59.965Z,34.00
2022-08-28T13:07:47.671Z,33.80
2022-08-28T13:10:32.651Z,33.80
2022-08-28T13:13:05.386Z,33.70
2022-08-28T13:15:48.571Z,33.60
2022-08-28T13:18:50.283Z,34.30
2022-08-28T13:21:17.419Z,35.00
2022-08-28T13:24:20.500Z,35.10
2022-08-28T13:26:50.318Z,35.50
2022-08-28T13:29:23.702Z,34.80
2022-08-28T13:32:07.536Z,34.50
2022-08-28T13:34:38.105Z,33.80
2022-08-28T13:37:20.381Z,34.30
2022-08-28T13:39:47.957Z,34.60
2022-08-28T13:42:17.819Z,33.90
2022-08-28T13:44:50.441Z,33.60
2022-08-28T13:47:17.723Z,33.60
2022-08-28T13:49:46.587Z,33.70
2022-08-28T13:52:14.105Z,33.60
2022-08-28T13:54:43.008Z,33.60
2022-08-28T13:57:13.644Z,34.40
2022-08-28T13:59:41.340Z,33.40
2022-08-28T14:02:32.016Z,32.50
2022-08-28T14:04:59.433Z,32.70
2022-08-28T14:07:26.717Z,33.70
2022-08-28T14:09:56.378Z,34.40
2022-08-28T14:12:31.401Z,34.20
2022-08-28T14:15:02.449Z,34.10
2022-08-28T14:17:29.848Z,34.40
2022-08-28T14:19:57.483Z,34.70
2022-08-28T14:22:24.694Z,35.00
2022-08-28T14:24:52.183Z,34.20
2022-08-28T14:27:20.243Z,34.10
2022-08-28T14:29:48.955Z,34.80
2022-08-28T14:32:16.197Z,34.40
2022-08-28T14:34:43.686Z,33.40
2022-08-28T14:37:10.924Z,33.20
2022-08-28T14:39:38.239Z,33.10
2022-08-28T14:42:13.010Z,33.10
2022-08-28T14:44:40.528Z,33.00
2022-08-28T14:47:07.688Z,33.70
2022-08-28T14:49:34.890Z,34.50
2022-08-28T14:52:02.129Z,34.30
2022-08-28T14:54:29.391Z,33.90
2022-08-28T14:56:57.028Z,33.20
2022-08-28T14:59:33.857Z,33.00
2022-08-28T15:02:02.006Z,33.40
2022-08-28T15:04:37.557Z,33.70
2022-08-28T15:07:10.677Z,34.00
2022-08-28T15:09:40.306Z,34.40
2022-08-28T15:12:08.248Z,34.80
2022-08-28T15:14:36.330Z,34.30
2022-08-28T15:17:04.126Z,33.10
2022-08-28T15:19:31.846Z,32.10
2022-08-28T15:21:59.079Z,31.50
2022-08-28T15:24:30.781Z,31.40
2022-08-28T15:26:59.556Z,31.20
2022-08-28T15:29:29.761Z,31.50
2022-08-28T15:31:57.427Z,32.10
2022-08-28T15:34:26.803Z,32.60
2022-08-28T15:36:55.957Z,32.90
2022-08-28T15:39:43.688Z,32.90
2022-08-28T15:42:11.614Z,32.70
2022-08-28T15:44:38.975Z,32.60
2022-08-28T15:47:06.959Z,32.90
2022-08-28T15:49:36.101Z,33.00
2022-08-28T15:52:06.787Z,32.60
2022-08-28T15:54:34.026Z,32.20
2022-08-28T15:57:01.271Z,31.60
2022-08-28T15:59:48.294Z,30.70
2022-08-28T16:02:15.959Z,30.00
2022-08-28T16:04:43.215Z,29.40
2022-08-28T16:07:11.002Z,29.40
2022-08-28T16:09:38.378Z,29.20
2022-08-28T16:12:05.740Z,29.20
2022-08-28T16:14:33.693Z,28.60
2022-08-28T16:17:05.706Z,27.30
2022-08-28T16:19:42.196Z,26.30
2022-08-28T16:22:15.798Z,25.40
2022-08-28T16:24:43.941Z,24.70
2022-08-28T16:27:15.373Z,24.40
2022-08-28T16:29:44.369Z,24.10
2022-08-28T16:32:12.435Z,24.00
2022-08-28T16:34:39.923Z,23.70
2022-08-28T16:37:07.822Z,23.50
2022-08-28T16:39:36.101Z,23.30
2022-08-28T16:42:03.483Z,23.10
2022-08-28T16:44:30.815Z,22.90
2022-08-28T16:46:58.156Z,22.80
2022-08-28T16:49:25.369Z,22.80
2022-08-28T16:51:52.837Z,22.80
2022-08-28T16:54:21.475Z,22.70
2022-08-28T16:56:48.894Z,22.70
2022-08-28T16:59:18.154Z,22.60
2022-08-28T17:01:45.568Z,22.50
2022-08-28T17:04:20.548Z,22.40
2022-08-28T17:06:47.779Z,22.30
2022-08-28T17:09:15.036Z,22.20
2022-08-28T17:11:42.228Z,22.20
2022-08-28T17:14:11.846Z,22.10
2022-08-28T17:16:39.333Z,22.10
2022-08-28T17:19:06.527Z,21.90
2022-08-28T17:21:52.505Z,21.90
2022-08-28T17:24:19.854Z,21.90
2022-08-28T17:26:47.124Z,21.80
2022-08-28T17:29:14.363Z,21.70
2022-08-28T17:31:41.652Z,21.70
2022-08-28T17:34:10.326Z,21.60
2022-08-28T17:36:39.525Z,21.60
2022-08-28T17:39:10.241Z,21.50
2022-08-28T17:41:37.668Z,21.50
2022-08-28T17:44:05.545Z,21.40
2022-08-28T17:46:37.464Z,21.30
2022-08-28T17:49:07.289Z,21.20
2022-08-28T17:51:43.450Z,21.20
2022-08-28T17:54:12.865Z,21.10
2022-08-28T17:56:40.619Z,21.00
2022-08-28T17:59:07.971Z,20.90
2022-08-28T18:01:35.977Z,20.80
2022-08-28T18:04:05.148Z,20.70
2022-08-28T18:06:33.108Z,20.60
2022-08-28T18:09:00.789Z,20.50
2022-08-28T18:11:28.742Z,20.50
2022-08-28T18:13:56.052Z,20.40
2022-08-28T18:16:26.490Z,20.30
2022-08-28T18:18:56.914Z,20.20
2022-08-28T18:21:24.739Z,20.10
2022-08-28T18:23:51.974Z,20.00
2022-08-28T18:26:19.178Z,20.00
2022-08-28T18:28:46.704Z,19.90
2022-08-28T18:31:13.961Z,19.80
2022-08-28T18:33:41.243Z,19.70
2022-08-28T18:36:10.376Z,19.50
2022-08-28T18:38:37.990Z,19.50
2022-08-28T18:41:06.879Z,19.40
2022-08-28T18:43:34.744Z,19.30
2022-08-28T18:46:03.655Z,19.20
2022-08-28T18:48:31.942Z,19.10
2022-08-28T18:50:59.163Z,19.00
2022-08-28T18:53:27.834Z,18.90
2022-08-28T18:55:56.234Z,18.80
2022-08-28T18:58:27.383Z,18.70
2022-08-28T19:00:54.796Z,18.60
2022-08-28T19:03:22.869Z,18.60
2022-08-28T19:05:51.192Z,18.50
2022-08-28T19:08:18.871Z,18.40
2022-08-28T19:10:46.559Z,18.50
2022-08-28T19:13:13.987Z,18.50
2022-08-28T19:15:41.308Z,18.40
2022-08-28T19:18:08.811Z,18.40
2022-08-28T19:20:36.008Z,18.40
2022-08-28T19:23:03.207Z,18.30
2022-08-28T19:25:30.593Z,18.30
2022-08-28T19:27:59.827Z,18.20
2022-08-28T19:30:32.902Z,18.10
2022-08-28T19:33:02.626Z,18.10
2022-08-28T19:35:29.969Z,18.00
2022-08-28T19:37:57.166Z,17.90
2022-08-28T19:40:24.401Z,17.90
2022-08-28T19:42:51.852Z,17.80
2022-08-28T19:45:20.249Z,17.80
2022-08-28T19:47:47.603Z,17.80
2022-08-28T19:50:15.783Z,17.70
2022-08-28T19:52:44.347Z,17.70
2022-08-28T19:55:21.791Z,17.60
2022-08-28T19:57:49.232Z,17.60
2022-08-28T20:00:23.542Z,17.50
2022-08-28T20:02:52.458Z,17.50
2022-08-28T20:05:20.907Z,17.40
2022-08-28T20:07:48.818Z,17.40
2022-08-28T20:10:17.759Z,17.30
2022-08-28T20:12:45.107Z,17.30
2022-08-28T20:15:17.731Z,17.20
2022-08-28T20:17:49.491Z,17.20
2022-08-28T20:20:19.566Z,17.10
2022-08-28T20:22:46.839Z,17.10
2022-08-28T20:25:15.649Z,17.00
2022-08-28T20:27:42.847Z,17.00
2022-08-28T20:30:11.428Z,16.90
2022-08-28T20:32:40.233Z,16.90
2022-08-28T20:35:10.906Z,16.80
2022-08-28T20:37:45.624Z,16.70
2022-08-28T20:40:18.025Z,16.70
2022-08-28T20:42:45.492Z,16.70
2022-08-28T20:45:15.048Z,16.70
2022-08-28T20:47:42.784Z,16.70
2022-08-28T20:50:11.130Z,16.60
2022-08-28T20:52:38.943Z,16.70
2022-08-28T20:55:07.719Z,16.60
2022-08-28T20:57:35.869Z,16.60
2022-08-28T21:00:07.771Z,16.60
2022-08-28T21:02:36.230Z,16.60
2022-08-28T21:05:04.863Z,16.50
2022-08-28T21:07:33.714Z,16.50
2022-08-28T21:10:05.259Z,16.50
2022-08-28T21:12:39.161Z,16.40
2022-08-28T21:15:08.722Z,16.40
2022-08-28T21:17:36.608Z,16.40
2022-08-28T21:20:12.781Z,16.30
2022-08-28T21:22:40.803Z,16.30
2022-08-28T21:25:10.456Z,16.20
2022-08-28T21:27:38.207Z,16.20
2022-08-28T21:30:07.142Z,16.30
2022-08-28T21:32:35.027Z,16.20
2022-08-28T21:35:03.506Z,16.20
2022-08-28T21:37:31.412Z,16.10
2022-08-28T21:39:59.998Z,16.10
2022-08-28T21:42:27.965Z,16.00
2022-08-28T21:44:55.203Z,15.90
2022-08-28T21:47:23.542Z,15.80
2022-08-28T21:49:53.119Z,15.80
2022-08-28T21:52:23.442Z,15.70
2022-08-28T21:54:55.772Z,15.70
2022-08-28T21:57:24.037Z,15.70
2022-08-28T21:59:51.264Z,15.70
2022-08-28T22:02:18.619Z,15.70
2022-08-28T22:04:45.972Z,15.80
2022-08-28T22:07:13.984Z,15.70
2022-08-28T22:09:41.967Z,15.70
2022-08-28T22:12:09.551Z,15.70
2022-08-28T22:14:37.655Z,15.70
2022-08-28T22:17:10.269Z,15.60
2022-08-28T22:19:39.149Z,15.60
2022-08-28T22:22:25.161Z,15.60
2022-08-28T22:24:52.868Z,15.50
2022-08-28T22:27:20.291Z,15.40
2022-08-28T22:29:47.699Z,15.30
2022-08-28T22:32:15.184Z,15.30
2022-08-28T22:34:44.941Z,15.20
2022-08-28T22:37:13.608Z,15.10
2022-08-28T22:39:41.795Z,15.10
2022-08-28T22:42:10.113Z,15.10
2022-08-28T22:44:38.366Z,15.00
2022-08-28T22:47:07.167Z,15.00
2022-08-28T22:49:35.039Z,15.00
2022-08-28T22:52:09.062Z,14.90
2022-08-28T22:54:36.340Z,14.90
2022-08-28T22:57:03.847Z,14.80
2022-08-28T22:59:31.549Z,14.80
2022-08-28T23:01:59.319Z,14.70
2022-08-28T23:04:27.094Z,14.70
2022-08-28T23:06:54.391Z,14.60
2022-08-28T23:09:21.594Z,14.60
2022-08-28T23:11:49.789Z,14.60
2022-08-28T23:14:17.635Z,14.50
2022-08-28T23:16:44.957Z,14.50
2022-08-28T23:19:13.209Z,14.50
2022-08-28T23:21:43.582Z,14.50
2022-08-28T23:24:12.848Z,14.40
2022-08-28T23:26:40.289Z,14.40
2022-08-28T23:29:08.469Z,14.30
2022-08-28T23:31:36.835Z,14.30
2022-08-28T23:34:05.292Z,14.20
2022-08-28T23:36:35.577Z,14.20
2022-08-28T23:39:04.084Z,14.10
2022-08-28T23:41:32.581Z,14.10
2022-08-28T23:44:02.414Z,14.10
2022-08-28T23:46:31.536Z,14.00
2022-08-28T23:48:58.772Z,14.00
2022-08-28T23:51:26.158Z,13.90
2022-08-28T23:53:53.627Z,13.90
2022-08-28T23:56:20.821Z,13.80
2022-08-28T23:58:47.988Z,13.70
